Flight Track Log - Related Links

Times and Time Zones

All times are in EDT time to prevent confusion due to time zone crossing. See the AWE12 flight status page for this flight to view local times or setup timezone preferences in your user account.


Time Position Orientation Groundspeed Altitude Reporting Facility
EDT Latitude Longitude Course Direction KTS MPH feet Rate Location/Type
Sun 10:24:32 AM 32.7411 -117.1128 276° West  Level FlightAware Approximate
Sun 10:24:42 AM 32.7500 -117.2167 131° Southeast 174 200 1,600  Level Southern California TRACON
Sun 10:29:45 AM 32.6211 -117.0433 93° East 263 303 13,000 2,264 Climbing Los Angeles Center
Sun 10:30:45 AM 32.6158 -116.9175 83° East 338 389 15,300 2,133 Climbing Los Angeles Center
Sun 10:32:45 AM 32.6444 -116.6417 85° East 403 464 19,400 2,055 Climbing Los Angeles Center
Sun 10:33:46 AM 32.6553 -116.4936 83° East 426 490 21,500 2,200 Climbing Los Angeles Center
Sun 10:34:45 AM 32.6703 -116.3506 83° East 438 504 23,800 1,765 Climbing Los Angeles Center
Sun 10:35:45 AM 32.6850 -116.2025 84° East 445 512 25,000 600 Climbing Los Angeles Center
Sun 10:36:45 AM 32.6978 -116.0519 84° East 450 518 25,000  Level Los Angeles Center
Sun 10:37:45 AM 32.7142 -115.8792 84° East 468 539 25,000  Level Los Angeles Center
Sun 10:38:45 AM 32.7283 -115.7236 84° East 468 539 25,000  Level Los Angeles Center
Sun 10:39:45 AM 32.7425 -115.5731 87° East 463 533 25,000  Level Los Angeles Center
Sun 10:40:45 AM 32.7500 -115.4247 88° East 458 527 25,000  Level Los Angeles Center
Sun 10:41:45 AM 32.7533 -115.2767 89° East 453 521 25,000  Level Los Angeles Center
Sun 10:42:45 AM 32.7561 -115.1258 89° East 453 521 25,000  Level Los Angeles Center
Sun 10:43:45 AM 32.7592 -114.9778 90° East 453 521 25,000  Level Los Angeles Center
Sun 10:44:45 AM 32.7597 -114.8319 87° East 448 516 25,000  Level Los Angeles Center
Sun 10:45:45 AM 32.7664 -114.6836 91° East 443 510 25,000  Level Los Angeles Center
Sun 10:46:45 AM 32.7647 -114.5381 87° East 438 504 25,000  Level Los Angeles Center
Sun 10:48:03 AM 32.7731 -114.3650 89° East 447 514 25,000  Level Albuquerque Center
Sun 10:49:05 AM 32.7747 -114.2178 89° East 447 514 25,000  Level Albuquerque Center
Sun 10:50:07 AM 32.7769 -114.0414 85° East 446 513 25,000 -48 Level Albuquerque Center
Sun 10:51:09 AM 32.7886 -113.8922 81° East 458 527 24,900 -290 Descending Albuquerque Center
Sun 10:52:11 AM 32.8092 -113.7447 60° Northeast 454 522 24,400 -581 Descending Albuquerque Center
Sun 10:53:13 AM 32.8697 -113.6189 49° Northeast 448 516 23,700 -968 Descending Albuquerque Center
Sun 10:54:15 AM 32.9500 -113.5097 49° Northeast 437 503 22,400 -1,403 Descending Albuquerque Center
Sun 10:55:17 AM 33.0297 -113.4014 49° Northeast 434 499 20,800 -1,984 Descending Albuquerque Center
Sun 10:56:19 AM 33.1050 -113.2992 49° Northeast 414 476 18,300 -2,032 Descending Albuquerque Center
Sun 10:57:21 AM 33.1919 -113.1811 49° Northeast 393 452 16,600 -1,500 Descending Albuquerque Center
Sun 10:58:23 AM 33.2597 -113.0881 79° East 379 436 15,200 -1,355 Descending Albuquerque Center
Sun 10:59:25 AM 33.2769 -112.9792 88° East 348 400 13,800 -1,355 Descending Albuquerque Center
Sun 11:00:27 AM 33.2797 -112.8658 76° East 340 391 12,400 -1,355 Descending Albuquerque Center
Sun 11:01:29 AM 33.2992 -112.7694 65° Northeast 304 350 11,000 -1,210 Descending Albuquerque Center
Sun 11:02:31 AM 33.3342 -112.6792 66° East 296 341 9,900 -1,161 Descending Albuquerque Center
Sun 11:03:33 AM 33.3675 -112.5883 65° Northeast 269 310 8,600 -919 Descending Albuquerque Center
Sun 11:04:35 AM 33.3978 -112.5108 67° East 253 291 8,000 -576 Descending Albuquerque Center
Sun 11:05:38 AM 33.4264 -112.4317 89° East 255 293 7,400 -720 Descending Albuquerque Center
Sun 11:06:40 AM 33.4278 -112.3583 85° East 223 257 6,500 -1,131 Descending Albuquerque Center
Sun 11:07:40 AM 33.4333 -112.2833 90° East 208 239 5,100 -1,190 Descending Phoenix TRACON
Sun 11:08:41 AM 33.4333 -112.2167 90° East 192 221 4,100 -961 Descending Phoenix TRACON
Sun 11:10:41 AM 33.4333 -112.1000 90° East 154 177 2,200 -897 Descending Phoenix TRACON
Sun 11:11:35 AM 33.4333 -112.0500 90° East 143 165 1,500 -778 Descending Phoenix TRACON

Login

Don't have an account? Register now (free) for customized features, flight alerts, and more!